sensor_id;sensor_type;location;lat;lon;timestamp;pressure;altitude;pressure_sealevel;temperature;humidity
76201;BME280;64981;52.930;9.266;2023-09-30T00:01:22;102020.47;;;14.10;74.85
76201;BME280;64981;52.930;9.266;2023-09-30T00:03:47;102023.66;;;14.14;74.78
76201;BME280;64981;52.930;9.266;2023-09-30T00:06:13;102020.84;;;14.15;74.58
76201;BME280;64981;52.930;9.266;2023-09-30T00:08:39;102017.22;;;13.98;75.22
76201;BME280;64981;52.930;9.266;2023-09-30T00:11:05;102031.03;;;14.02;75.34
76201;BME280;64981;52.930;9.266;2023-09-30T00:13:31;102033.19;;;13.89;75.45
76201;BME280;64981;52.930;9.266;2023-09-30T00:15:57;102031.34;;;13.99;74.94
76201;BME280;64981;52.930;9.266;2023-09-30T00:18:23;102019.47;;;13.93;75.39
76201;BME280;64981;52.930;9.266;2023-09-30T00:20:49;102029.94;;;13.95;75.25
76201;BME280;64981;52.930;9.266;2023-09-30T00:23:14;102032.91;;;13.92;75.50
76201;BME280;64981;52.930;9.266;2023-09-30T00:25:40;102037.13;;;13.85;75.53
76201;BME280;64981;52.930;9.266;2023-09-30T00:28:06;102037.53;;;13.90;75.18
76201;BME280;64981;52.930;9.266;2023-09-30T00:30:31;102036.69;;;13.89;75.13
76201;BME280;64981;52.930;9.266;2023-09-30T00:32:57;102040.63;;;13.85;74.96
76201;BME280;64981;52.930;9.266;2023-09-30T00:35:24;102037.13;;;13.85;75.12
76201;BME280;64981;52.930;9.266;2023-09-30T00:37:50;102036.03;;;13.87;75.39
76201;BME280;64981;52.930;9.266;2023-09-30T00:40:15;102039.03;;;13.92;75.15
76201;BME280;64981;52.930;9.266;2023-09-30T00:42:41;102033.38;;;13.87;75.05
76201;BME280;64981;52.930;9.266;2023-09-30T00:45:07;102041.03;;;13.90;74.95
76201;BME280;64981;52.930;9.266;2023-09-30T00:47:36;102029.34;;;13.83;74.87
76201;BME280;64981;52.930;9.266;2023-09-30T00:50:03;102030.78;;;13.78;75.45
76201;BME280;64981;52.930;9.266;2023-09-30T00:52:31;102031.56;;;13.88;74.86
76201;BME280;64981;52.930;9.266;2023-09-30T00:54:59;102022.81;;;13.78;75.01
76201;BME280;64981;52.930;9.266;2023-09-30T00:57:25;102014.53;;;13.81;75.22
76201;BME280;64981;52.930;9.266;2023-09-30T00:59:51;102031.00;;;13.67;75.49
76201;BME280;64981;52.930;9.266;2023-09-30T01:02:18;102028.19;;;13.68;75.34
76201;BME280;64981;52.930;9.266;2023-09-30T01:04:44;102028.44;;;13.75;75.18
76201;BME280;64981;52.930;9.266;2023-09-30T01:07:10;102033.22;;;13.71;75.23
76201;BME280;64981;52.930;9.266;2023-09-30T01:09:37;102032.13;;;13.82;74.52
76201;BME280;64981;52.930;9.266;2023-09-30T01:12:03;102046.41;;;13.81;74.38
76201;BME280;64981;52.930;9.266;2023-09-30T01:14:31;102048.47;;;13.87;74.39
76201;BME280;64981;52.930;9.266;2023-09-30T01:16:57;102052.16;;;13.76;74.62
76201;BME280;64981;52.930;9.266;2023-09-30T01:19:24;102062.94;;;13.75;74.96
76201;BME280;64981;52.930;9.266;2023-09-30T01:21:53;102062.78;;;13.76;74.80
76201;BME280;64981;52.930;9.266;2023-09-30T01:24:20;102048.28;;;13.71;74.75
76201;BME280;64981;52.930;9.266;2023-09-30T01:26:45;102045.41;;;13.82;74.37
76201;BME280;64981;52.930;9.266;2023-09-30T01:29:11;102054.28;;;13.73;74.43
76201;BME280;64981;52.930;9.266;2023-09-30T01:31:37;102065.66;;;13.65;75.00
76201;BME280;64981;52.930;9.266;2023-09-30T01:34:04;102068.03;;;13.68;74.78
76201;BME280;64981;52.930;9.266;2023-09-30T01:36:30;102076.28;;;13.65;74.64
76201;BME280;64981;52.930;9.266;2023-09-30T01:38:56;102066.50;;;13.66;74.67
76201;BME280;64981;52.930;9.266;2023-09-30T01:41:22;102060.50;;;13.64;74.62
76201;BME280;64981;52.930;9.266;2023-09-30T01:43:48;102057.47;;;13.59;74.79
76201;BME280;64981;52.930;9.266;2023-09-30T01:46:14;102057.22;;;13.52;75.20
76201;BME280;64981;52.930;9.266;2023-09-30T01:48:39;102052.13;;;13.41;75.35
76201;BME280;64981;52.930;9.266;2023-09-30T01:51:05;102058.91;;;13.53;75.10
76201;BME280;64981;52.930;9.266;2023-09-30T01:53:32;102051.91;;;13.52;75.22
76201;BME280;64981;52.930;9.266;2023-09-30T01:55:58;102049.09;;;13.53;74.89
76201;BME280;64981;52.930;9.266;2023-09-30T01:58:23;102048.13;;;13.55;74.71
76201;BME280;64981;52.930;9.266;2023-09-30T02:00:52;102049.31;;;13.42;74.96
76201;BME280;64981;52.930;9.266;2023-09-30T02:03:17;102048.25;;;13.35;75.26
76201;BME280;64981;52.930;9.266;2023-09-30T02:05:43;102060.00;;;13.33;75.41
76201;BME280;64981;52.930;9.266;2023-09-30T02:08:09;102064.38;;;13.24;76.00
76201;BME280;64981;52.930;9.266;2023-09-30T02:10:34;102056.06;;;13.10;76.60
76201;BME280;64981;52.930;9.266;2023-09-30T02:13:00;102059.56;;;13.01;76.57
76201;BME280;64981;52.930;9.266;2023-09-30T02:15:26;102068.28;;;13.20;76.01
76201;BME280;64981;52.930;9.266;2023-09-30T02:17:51;102060.59;;;13.27;75.67
76201;BME280;64981;52.930;9.266;2023-09-30T02:20:17;102064.50;;;13.23;75.62
76201;BME280;64981;52.930;9.266;2023-09-30T02:22:47;102069.16;;;13.11;76.25
76201;BME280;64981;52.930;9.266;2023-09-30T02:25:14;102078.22;;;13.18;76.15
76201;BME280;64981;52.930;9.266;2023-09-30T02:27:41;102074.06;;;13.16;76.47
76201;BME280;64981;52.930;9.266;2023-09-30T02:30:09;102070.25;;;13.18;75.98
76201;BME280;64981;52.930;9.266;2023-09-30T02:32:39;102079.16;;;13.27;75.60
76201;BME280;64981;52.930;9.266;2023-09-30T02:35:05;102085.00;;;13.30;75.95
76201;BME280;64981;52.930;9.266;2023-09-30T02:37:32;102089.03;;;13.34;75.51
76201;BME280;64981;52.930;9.266;2023-09-30T02:40:02;102096.13;;;13.43;75.01
76201;BME280;64981;52.930;9.266;2023-09-30T02:42:30;102090.03;;;13.33;75.24
76201;BME280;64981;52.930;9.266;2023-09-30T02:44:55;102089.44;;;13.39;75.02
76201;BME280;64981;52.930;9.266;2023-09-30T02:47:21;102087.38;;;13.33;74.87
76201;BME280;64981;52.930;9.266;2023-09-30T02:49:46;102092.28;;;13.28;75.37
76201;BME280;64981;52.930;9.266;2023-09-30T02:52:12;102087.28;;;13.25;75.66
76201;BME280;64981;52.930;9.266;2023-09-30T02:54:38;102094.16;;;13.18;75.50
76201;BME280;64981;52.930;9.266;2023-09-30T02:57:03;102094.81;;;13.20;75.67
76201;BME280;64981;52.930;9.266;2023-09-30T02:59:29;102092.84;;;13.22;75.80
76201;BME280;64981;52.930;9.266;2023-09-30T03:01:55;102086.88;;;13.20;75.63
76201;BME280;64981;52.930;9.266;2023-09-30T03:04:21;102078.78;;;13.22;75.46
76201;BME280;64981;52.930;9.266;2023-09-30T03:06:51;102085.13;;;13.29;74.91
76201;BME280;64981;52.930;9.266;2023-09-30T03:09:16;102084.38;;;13.19;75.38
76201;BME280;64981;52.930;9.266;2023-09-30T03:11:42;102077.00;;;13.13;75.85
76201;BME280;64981;52.930;9.266;2023-09-30T03:14:10;102074.72;;;13.18;75.69
76201;BME280;64981;52.930;9.266;2023-09-30T03:16:36;102074.34;;;13.13;75.88
76201;BME280;64981;52.930;9.266;2023-09-30T03:19:03;102081.44;;;13.22;75.31
76201;BME280;64981;52.930;9.266;2023-09-30T03:21:34;102080.16;;;13.16;75.92
76201;BME280;64981;52.930;9.266;2023-09-30T03:24:02;102088.25;;;13.24;75.56
76201;BME280;64981;52.930;9.266;2023-09-30T03:26:29;102094.66;;;13.31;75.17
76201;BME280;64981;52.930;9.266;2023-09-30T03:28:55;102084.63;;;13.25;75.24
76201;BME280;64981;52.930;9.266;2023-09-30T03:31:21;102087.97;;;13.27;75.14
76201;BME280;64981;52.930;9.266;2023-09-30T03:33:49;102091.88;;;13.23;75.09
76201;BME280;64981;52.930;9.266;2023-09-30T03:36:16;102095.13;;;13.17;75.40
76201;BME280;64981;52.930;9.266;2023-09-30T03:38:44;102095.69;;;13.11;75.66
76201;BME280;64981;52.930;9.266;2023-09-30T03:41:10;102086.63;;;13.04;76.03
76201;BME280;64981;52.930;9.266;2023-09-30T03:43:39;102087.69;;;12.93;76.14
76201;BME280;64981;52.930;9.266;2023-09-30T03:46:08;102083.88;;;12.96;76.39
76201;BME280;64981;52.930;9.266;2023-09-30T03:48:33;102085.56;;;12.97;76.14
76201;BME280;64981;52.930;9.266;2023-09-30T03:51:10;102078.88;;;12.93;76.39
76201;BME280;64981;52.930;9.266;2023-09-30T03:53:41;102080.41;;;12.95;76.29
76201;BME280;64981;52.930;9.266;2023-09-30T03:56:07;102076.91;;;12.95;76.01
76201;BME280;64981;52.930;9.266;2023-09-30T03:58:33;102074.53;;;12.92;76.39
76201;BME280;64981;52.930;9.266;2023-09-30T04:00:59;102067.16;;;12.86;76.32
76201;BME280;64981;52.930;9.266;2023-09-30T04:03:26;102072.44;;;12.95;76.11
76201;BME280;64981;52.930;9.266;2023-09-30T04:05:53;102068.94;;;12.95;76.16
76201;BME280;64981;52.930;9.266;2023-09-30T04:08:19;102080.28;;;12.97;76.18
76201;BME280;64981;52.930;9.266;2023-09-30T04:10:45;102081.53;;;12.93;76.39
76201;BME280;64981;52.930;9.266;2023-09-30T04:13:10;102086.13;;;12.91;76.67
76201;BME280;64981;52.930;9.266;2023-09-30T04:15:37;102087.25;;;12.88;76.63
76201;BME280;64981;52.930;9.266;2023-09-30T04:18:04;102094.38;;;12.88;76.86
76201;BME280;64981;52.930;9.266;2023-09-30T04:20:31;102080.59;;;12.84;76.90
76201;BME280;64981;52.930;9.266;2023-09-30T04:22:57;102087.25;;;12.88;76.41
76201;BME280;64981;52.930;9.266;2023-09-30T04:25:23;102082.94;;;12.97;75.89
76201;BME280;64981;52.930;9.266;2023-09-30T04:27:50;102089.47;;;13.03;75.50
76201;BME280;64981;52.930;9.266;2023-09-30T04:30:16;102091.56;;;12.99;76.01
76201;BME280;64981;52.930;9.266;2023-09-30T04:32:43;102086.41;;;12.78;77.02
76201;BME280;64981;52.930;9.266;2023-09-30T04:35:09;102090.06;;;12.77;77.19
76201;BME280;64981;52.930;9.266;2023-09-30T04:37:35;102090.63;;;12.71;77.33
76201;BME280;64981;52.930;9.266;2023-09-30T04:40:05;102102.88;;;12.72;77.55
76201;BME280;64981;52.930;9.266;2023-09-30T04:42:42;102095.06;;;12.80;77.26
76201;BME280;64981;52.930;9.266;2023-09-30T04:45:11;102095.63;;;12.93;76.51
76201;BME280;64981;52.930;9.266;2023-09-30T04:47:37;102097.03;;;12.88;76.80
76201;BME280;64981;52.930;9.266;2023-09-30T04:50:06;102111.28;;;12.87;77.10
76201;BME280;64981;52.930;9.266;2023-09-30T04:52:34;102103.72;;;12.92;76.71
76201;BME280;64981;52.930;9.266;2023-09-30T04:55:01;102096.72;;;12.91;76.52
76201;BME280;64981;52.930;9.266;2023-09-30T04:57:26;102096.31;;;12.95;76.09
76201;BME280;64981;52.930;9.266;2023-09-30T04:59:52;102101.75;;;12.94;76.28
76201;BME280;64981;52.930;9.266;2023-09-30T05:02:18;102097.84;;;12.98;75.98
76201;BME280;64981;52.930;9.266;2023-09-30T05:04:43;102105.53;;;12.91;76.35
76201;BME280;64981;52.930;9.266;2023-09-30T05:07:09;102116.69;;;12.95;76.27
76201;BME280;64981;52.930;9.266;2023-09-30T05:09:35;102107.91;;;12.85;76.66
76201;BME280;64981;52.930;9.266;2023-09-30T05:12:01;102114.63;;;12.89;76.54
76201;BME280;64981;52.930;9.266;2023-09-30T05:14:29;102110.72;;;12.83;76.36
76201;BME280;64981;52.930;9.266;2023-09-30T05:16:55;102106.09;;;12.76;77.02
76201;BME280;64981;52.930;9.266;2023-09-30T05:19:22;102113.06;;;12.77;76.80
76201;BME280;64981;52.930;9.266;2023-09-30T05:21:48;102116.00;;;12.93;76.46
76201;BME280;64981;52.930;9.266;2023-09-30T05:24:14;102108.72;;;12.95;76.03
76201;BME280;64981;52.930;9.266;2023-09-30T05:26:40;102122.16;;;12.93;76.19
76201;BME280;64981;52.930;9.266;2023-09-30T05:29:06;102121.88;;;12.96;76.14
76201;BME280;64981;52.930;9.266;2023-09-30T05:31:32;102132.03;;;12.91;76.18
76201;BME280;64981;52.930;9.266;2023-09-30T05:33:58;102143.94;;;12.97;76.15
76201;BME280;64981;52.930;9.266;2023-09-30T05:36:24;102134.44;;;12.85;76.08
76201;BME280;64981;52.930;9.266;2023-09-30T05:38:49;102139.03;;;12.73;77.14
76201;BME280;64981;52.930;9.266;2023-09-30T05:41:15;102135.00;;;12.69;76.95
76201;BME280;64981;52.930;9.266;2023-09-30T05:43:40;102138.09;;;12.84;76.48
76201;BME280;64981;52.930;9.266;2023-09-30T05:46:08;102139.06;;;12.83;76.51
76201;BME280;64981;52.930;9.266;2023-09-30T05:48:34;102138.06;;;12.74;76.90
76201;BME280;64981;52.930;9.266;2023-09-30T05:51:00;102148.41;;;12.68;77.47
76201;BME280;64981;52.930;9.266;2023-09-30T05:53:28;102148.81;;;12.54;77.66
76201;BME280;64981;52.930;9.266;2023-09-30T05:55:53;102157.59;;;12.44;78.24
76201;BME280;64981;52.930;9.266;2023-09-30T05:58:19;102158.31;;;12.56;77.50
76201;BME280;64981;52.930;9.266;2023-09-30T06:00:45;102169.31;;;12.71;77.22
76201;BME280;64981;52.930;9.266;2023-09-30T06:03:11;102169.59;;;12.77;76.79
76201;BME280;64981;52.930;9.266;2023-09-30T06:05:40;102165.00;;;12.70;77.38
76201;BME280;64981;52.930;9.266;2023-09-30T06:08:08;102169.63;;;12.87;76.59
76201;BME280;64981;52.930;9.266;2023-09-30T06:10:36;102170.16;;;12.81;76.90
76201;BME280;64981;52.930;9.266;2023-09-30T06:13:04;102178.53;;;12.67;77.78
76201;BME280;64981;52.930;9.266;2023-09-30T06:15:29;102193.31;;;12.69;77.65
76201;BME280;64981;52.930;9.266;2023-09-30T06:17:56;102178.53;;;12.67;77.57
76201;BME280;64981;52.930;9.266;2023-09-30T06:20:22;102188.16;;;12.68;77.80
76201;BME280;64981;52.930;9.266;2023-09-30T06:22:51;102184.09;;;12.73;77.62
76201;BME280;64981;52.930;9.266;2023-09-30T06:25:20;102183.25;;;12.82;77.58
76201;BME280;64981;52.930;9.266;2023-09-30T06:27:48;102177.56;;;12.87;77.03
76201;BME280;64981;52.930;9.266;2023-09-30T06:30:16;102167.53;;;12.90;77.21
76201;BME280;64981;52.930;9.266;2023-09-30T06:32:42;102188.00;;;13.08;76.93
76201;BME280;64981;52.930;9.266;2023-09-30T06:35:09;102178.03;;;13.19;76.48
76201;BME280;64981;52.930;9.266;2023-09-30T06:37:36;102191.25;;;13.38;75.65
76201;BME280;64981;52.930;9.266;2023-09-30T06:40:05;102184.28;;;13.37;75.76
76201;BME280;64981;52.930;9.266;2023-09-30T06:42:33;102183.22;;;13.58;75.04
76201;BME280;64981;52.930;9.266;2023-09-30T06:44:59;102184.72;;;13.60;74.92
76201;BME280;64981;52.930;9.266;2023-09-30T06:47:24;102183.47;;;13.64;74.95
76201;BME280;64981;52.930;9.266;2023-09-30T06:49:50;102197.13;;;13.69;74.99
76201;BME280;64981;52.930;9.266;2023-09-30T06:52:15;102209.25;;;13.81;74.77
76201;BME280;64981;52.930;9.266;2023-09-30T06:54:41;102199.41;;;13.91;74.06
76201;BME280;64981;52.930;9.266;2023-09-30T06:57:06;102209.59;;;13.96;73.94
76201;BME280;64981;52.930;9.266;2023-09-30T06:59:33;102205.13;;;13.96;74.41
76201;BME280;64981;52.930;9.266;2023-09-30T07:01:59;102206.00;;;14.15;73.67
76201;BME280;64981;52.930;9.266;2023-09-30T07:04:24;102214.00;;;14.32;73.55
76201;BME280;64981;52.930;9.266;2023-09-30T07:06:53;102201.78;;;14.39;73.06
76201;BME280;64981;52.930;9.266;2023-09-30T07:09:18;102223.94;;;14.48;72.51
76201;BME280;64981;52.930;9.266;2023-09-30T07:11:45;102223.13;;;14.65;71.99
76201;BME280;64981;52.930;9.266;2023-09-30T07:14:11;102225.94;;;14.81;71.48
76201;BME280;64981;52.930;9.266;2023-09-30T07:16:36;102228.06;;;14.78;71.50
76201;BME280;64981;52.930;9.266;2023-09-30T07:19:02;102220.00;;;14.87;71.32
76201;BME280;64981;52.930;9.266;2023-09-30T07:21:28;102229.59;;;14.80;72.28
76201;BME280;64981;52.930;9.266;2023-09-30T07:23:54;102228.28;;;14.84;72.00
76201;BME280;64981;52.930;9.266;2023-09-30T07:26:25;102230.16;;;14.92;71.73
76201;BME280;64981;52.930;9.266;2023-09-30T07:28:50;102231.91;;;15.01;71.70
76201;BME280;64981;52.930;9.266;2023-09-30T07:31:16;102234.00;;;15.07;71.47
76201;BME280;64981;52.930;9.266;2023-09-30T07:33:41;102241.19;;;15.15;71.20
76201;BME280;64981;52.930;9.266;2023-09-30T07:36:07;102245.53;;;15.16;71.00
76201;BME280;64981;52.930;9.266;2023-09-30T07:38:32;102235.88;;;15.15;71.52
76201;BME280;64981;52.930;9.266;2023-09-30T07:41:00;102236.41;;;15.18;71.31
76201;BME280;64981;52.930;9.266;2023-09-30T07:43:28;102238.97;;;15.28;71.26
76201;BME280;64981;52.930;9.266;2023-09-30T07:45:53;102235.81;;;15.32;71.50
76201;BME280;64981;52.930;9.266;2023-09-30T07:48:19;102241.03;;;15.42;71.04
76201;BME280;64981;52.930;9.266;2023-09-30T07:50:44;102237.69;;;15.66;70.16
76201;BME280;64981;52.930;9.266;2023-09-30T07:53:10;102240.50;;;15.64;70.32
76201;BME280;64981;52.930;9.266;2023-09-30T07:55:37;102247.03;;;15.70;70.24
76201;BME280;64981;52.930;9.266;2023-09-30T07:58:03;102258.06;;;15.83;69.82
76201;BME280;64981;52.930;9.266;2023-09-30T08:00:28;102250.06;;;15.83;70.09
76201;BME280;64981;52.930;9.266;2023-09-30T08:02:54;102263.13;;;15.94;69.57
76201;BME280;64981;52.930;9.266;2023-09-30T08:05:20;102265.31;;;15.98;69.35
76201;BME280;64981;52.930;9.266;2023-09-30T08:07:45;102272.16;;;16.01;69.26
76201;BME280;64981;52.930;9.266;2023-09-30T08:10:11;102264.13;;;15.93;69.33
76201;BME280;64981;52.930;9.266;2023-09-30T08:12:39;102268.47;;;15.94;69.37
76201;BME280;64981;52.930;9.266;2023-09-30T08:15:06;102262.41;;;15.84;69.54
76201;BME280;64981;52.930;9.266;2023-09-30T08:17:31;102261.09;;;16.13;68.70
76201;BME280;64981;52.930;9.266;2023-09-30T08:19:59;102260.91;;;16.15;68.45
76201;BME280;64981;52.930;9.266;2023-09-30T08:22:25;102266.56;;;16.20;68.44
76201;BME280;64981;52.930;9.266;2023-09-30T08:24:54;102264.75;;;16.21;68.73
76201;BME280;64981;52.930;9.266;2023-09-30T08:27:19;102255.31;;;16.34;67.66
76201;BME280;64981;52.930;9.266;2023-09-30T08:29:45;102262.97;;;16.37;67.52
76201;BME280;64981;52.930;9.266;2023-09-30T08:32:11;102267.28;;;16.30;68.59
76201;BME280;64981;52.930;9.266;2023-09-30T08:34:37;102275.81;;;16.42;68.36
76201;BME280;64981;52.930;9.266;2023-09-30T08:37:02;102271.16;;;16.52;68.04
76201;BME280;64981;52.930;9.266;2023-09-30T08:39:28;102272.19;;;16.51;67.70
76201;BME280;64981;52.930;9.266;2023-09-30T08:41:55;102282.34;;;16.55;67.17
76201;BME280;64981;52.930;9.266;2023-09-30T08:44:21;102271.84;;;16.54;67.04
76201;BME280;64981;52.930;9.266;2023-09-30T08:46:49;102286.38;;;16.67;66.88
76201;BME280;64981;52.930;9.266;2023-09-30T08:49:18;102283.53;;;16.53;67.14
76201;BME280;64981;52.930;9.266;2023-09-30T08:51:43;102281.53;;;16.71;66.39
76201;BME280;64981;52.930;9.266;2023-09-30T08:54:10;102291.22;;;16.80;66.60
76201;BME280;64981;52.930;9.266;2023-09-30T08:56:36;102288.91;;;16.85;65.96
76201;BME280;64981;52.930;9.266;2023-09-30T08:59:06;102297.09;;;16.92;66.04
76201;BME280;64981;52.930;9.266;2023-09-30T09:01:31;102301.75;;;16.90;66.43
76201;BME280;64981;52.930;9.266;2023-09-30T09:03:57;102295.94;;;16.94;65.92
76201;BME280;64981;52.930;9.266;2023-09-30T09:06:25;102295.63;;;17.05;65.67
76201;BME280;64981;52.930;9.266;2023-09-30T09:08:51;102298.78;;;17.09;65.96
76201;BME280;64981;52.930;9.266;2023-09-30T09:11:17;102306.16;;;17.23;65.43
76201;BME280;64981;52.930;9.266;2023-09-30T09:13:49;102303.13;;;17.18;65.52
76201;BME280;64981;52.930;9.266;2023-09-30T09:16:16;102302.44;;;17.40;64.48
76201;BME280;64981;52.930;9.266;2023-09-30T09:18:44;102295.44;;;17.47;63.98
76201;BME280;64981;52.930;9.266;2023-09-30T09:21:15;102300.94;;;17.46;64.62
76201;BME280;64981;52.930;9.266;2023-09-30T09:23:43;102293.41;;;17.49;64.35
76201;BME280;64981;52.930;9.266;2023-09-30T09:26:10;102302.91;;;17.60;63.97
76201;BME280;64981;52.930;9.266;2023-09-30T09:28:37;102303.91;;;17.59;63.94
76201;BME280;64981;52.930;9.266;2023-09-30T09:31:22;102304.09;;;17.49;64.14
76201;BME280;64981;52.930;9.266;2023-09-30T09:33:49;102296.75;;;17.43;64.10
76201;BME280;64981;52.930;9.266;2023-09-30T09:36:15;102285.56;;;17.56;64.42
76201;BME280;64981;52.930;9.266;2023-09-30T09:38:50;102288.19;;;17.64;64.08
76201;BME280;64981;52.930;9.266;2023-09-30T09:41:19;102294.72;;;17.69;63.63
76201;BME280;64981;52.930;9.266;2023-09-30T09:43:48;102291.81;;;17.87;63.30
76201;BME280;64981;52.930;9.266;2023-09-30T09:46:17;102288.47;;;17.93;62.72
76201;BME280;64981;52.930;9.266;2023-09-30T09:48:45;102291.34;;;17.92;62.95
76201;BME280;64981;52.930;9.266;2023-09-30T09:51:13;102298.97;;;18.03;62.57
76201;BME280;64981;52.930;9.266;2023-09-30T09:53:41;102297.66;;;17.99;62.31
76201;BME280;64981;52.930;9.266;2023-09-30T09:56:08;102297.56;;;18.23;61.63
76201;BME280;64981;52.930;9.266;2023-09-30T09:58:36;102293.13;;;18.38;61.01
76201;BME280;64981;52.930;9.266;2023-09-30T10:01:05;102296.50;;;18.32;61.43
76201;BME280;64981;52.930;9.266;2023-09-30T10:03:31;102287.78;;;18.38;61.08
76201;BME280;64981;52.930;9.266;2023-09-30T10:05:59;102276.66;;;18.49;61.35
76201;BME280;64981;52.930;9.266;2023-09-30T10:08:37;102280.53;;;18.47;60.86
76201;BME280;64981;52.930;9.266;2023-09-30T10:11:05;102282.00;;;18.57;60.59
76201;BME280;64981;52.930;9.266;2023-09-30T10:19:16;102285.06;;;19.14;58.69
76201;BME280;64981;52.930;9.266;2023-09-30T10:24:29;102287.00;;;19.43;57.49
76201;BME280;64981;52.930;9.266;2023-09-30T10:29:41;102299.72;;;19.78;56.44
76201;BME280;64981;52.930;9.266;2023-09-30T10:32:08;102306.00;;;19.71;55.52
76201;BME280;64981;52.930;9.266;2023-09-30T10:34:34;102310.34;;;19.72;55.67
76201;BME280;64981;52.930;9.266;2023-09-30T10:37:20;102294.19;;;19.80;55.63
76201;BME280;64981;52.930;9.266;2023-09-30T10:39:56;102293.63;;;19.70;56.12
76201;BME280;64981;52.930;9.266;2023-09-30T10:48:34;102307.59;;;19.80;55.57
76201;BME280;64981;52.930;9.266;2023-09-30T10:51:11;102308.97;;;19.91;54.88
76201;BME280;64981;52.930;9.266;2023-09-30T10:53:48;102309.59;;;19.93;55.78
76201;BME280;64981;52.930;9.266;2023-09-30T10:56:15;102312.94;;;19.95;54.83
76201;BME280;64981;52.930;9.266;2023-09-30T10:58:46;102311.47;;;20.07;54.68
76201;BME280;64981;52.930;9.266;2023-09-30T11:01:14;102315.53;;;20.17;53.49
76201;BME280;64981;52.930;9.266;2023-09-30T11:03:41;102307.38;;;19.96;53.69
76201;BME280;64981;52.930;9.266;2023-09-30T11:06:10;102313.03;;;19.86;54.11
76201;BME280;64981;52.930;9.266;2023-09-30T11:08:42;102307.28;;;19.90;53.93
76201;BME280;64981;52.930;9.266;2023-09-30T11:11:10;102306.25;;;20.05;54.28
76201;BME280;64981;52.930;9.266;2023-09-30T11:13:36;102307.31;;;20.04;54.16
76201;BME280;64981;52.930;9.266;2023-09-30T11:16:03;102302.03;;;19.96;54.65
76201;BME280;64981;52.930;9.266;2023-09-30T11:18:30;102301.19;;;19.81;54.30
76201;BME280;64981;52.930;9.266;2023-09-30T11:21:08;102297.03;;;19.93;54.70
76201;BME280;64981;52.930;9.266;2023-09-30T11:23:37;102288.25;;;19.84;53.51
76201;BME280;64981;52.930;9.266;2023-09-30T11:26:03;102295.84;;;19.81;53.54
76201;BME280;64981;52.930;9.266;2023-09-30T11:28:40;102295.94;;;19.88;53.53
76201;BME280;64981;52.930;9.266;2023-09-30T11:31:10;102299.56;;;19.80;53.42
76201;BME280;64981;52.930;9.266;2023-09-30T11:33:47;102297.75;;;19.58;54.07
76201;BME280;64981;52.930;9.266;2023-09-30T11:36:13;102300.09;;;19.61;53.91
76201;BME280;64981;52.930;9.266;2023-09-30T11:38:44;102306.16;;;19.55;54.46
76201;BME280;64981;52.930;9.266;2023-09-30T11:41:10;102307.34;;;19.52;54.08
76201;BME280;64981;52.930;9.266;2023-09-30T11:43:36;102292.38;;;19.58;53.66
76201;BME280;64981;52.930;9.266;2023-09-30T11:46:13;102296.91;;;19.57;52.81
76201;BME280;64981;52.930;9.266;2023-09-30T11:48:56;102291.84;;;19.62;53.49
76201;BME280;64981;52.930;9.266;2023-09-30T11:51:23;102291.84;;;19.62;52.89
76201;BME280;64981;52.930;9.266;2023-09-30T11:53:50;102302.69;;;19.69;52.62
76201;BME280;64981;52.930;9.266;2023-09-30T11:56:16;102289.16;;;19.77;52.04
76201;BME280;64981;52.930;9.266;2023-09-30T11:58:42;102290.38;;;19.74;52.54
76201;BME280;64981;52.930;9.266;2023-09-30T12:01:07;102286.06;;;19.73;52.67
76201;BME280;64981;52.930;9.266;2023-09-30T12:03:35;102280.59;;;19.67;51.98
76201;BME280;64981;52.930;9.266;2023-09-30T12:06:06;102288.44;;;19.68;52.26
76201;BME280;64981;52.930;9.266;2023-09-30T12:08:32;102278.53;;;19.69;52.97
76201;BME280;64981;52.930;9.266;2023-09-30T12:10:57;102274.75;;;19.63;51.93
76201;BME280;64981;52.930;9.266;2023-09-30T12:13:25;102268.03;;;19.67;51.77
76201;BME280;64981;52.930;9.266;2023-09-30T12:15:51;102269.41;;;19.63;52.47
76201;BME280;64981;52.930;9.266;2023-09-30T12:18:18;102268.03;;;19.67;52.74
76201;BME280;64981;52.930;9.266;2023-09-30T12:20:50;102274.13;;;19.76;51.76
76201;BME280;64981;52.930;9.266;2023-09-30T12:23:18;102261.16;;;19.65;51.99
76201;BME280;64981;52.930;9.266;2023-09-30T12:25:44;102263.91;;;19.57;51.97
76201;BME280;64981;52.930;9.266;2023-09-30T12:28:09;102258.81;;;19.47;52.72
76201;BME280;64981;52.930;9.266;2023-09-30T12:30:35;102268.69;;;19.47;52.37
76201;BME280;64981;52.930;9.266;2023-09-30T12:33:01;102274.78;;;19.41;52.70
76201;BME280;64981;52.930;9.266;2023-09-30T12:35:27;102269.63;;;19.39;52.74
76201;BME280;64981;52.930;9.266;2023-09-30T12:37:53;102268.59;;;19.40;53.03
76201;BME280;64981;52.930;9.266;2023-09-30T12:40:18;102259.19;;;19.44;53.46
76201;BME280;64981;52.930;9.266;2023-09-30T12:42:44;102252.47;;;19.63;53.49
76201;BME280;64981;52.930;9.266;2023-09-30T12:45:11;102255.03;;;19.56;52.72
76201;BME280;64981;52.930;9.266;2023-09-30T12:47:38;102261.81;;;19.67;52.65
76201;BME280;64981;52.930;9.266;2023-09-30T12:50:04;102253.31;;;19.63;52.92
76201;BME280;64981;52.930;9.266;2023-09-30T12:52:29;102254.31;;;19.62;53.36
76201;BME280;64981;52.930;9.266;2023-09-30T12:54:57;102242.75;;;19.62;53.42
76201;BME280;64981;52.930;9.266;2023-09-30T12:57:23;102242.84;;;19.68;53.81
76201;BME280;64981;52.930;9.266;2023-09-30T12:59:49;102231.66;;;19.65;53.11
76201;BME280;64981;52.930;9.266;2023-09-30T13:02:15;102238.25;;;19.62;53.08
76201;BME280;64981;52.930;9.266;2023-09-30T13:04:44;102237.69;;;19.67;53.16
76201;BME280;64981;52.930;9.266;2023-09-30T13:07:10;102233.44;;;19.72;52.68